Weather at Frederikssund Nord Glider Field

Public forecast

Using degrees Celsius for public forecast. Weather courtesy of forecast.io.

Closest aviation weather report (METAR) to Frederikssund Nord Glider Field

Closest report is Copenhagen Roskilde Airport, 16.1 nm (29.9 km) S.

2024/05/18 21:50 (retrieved 14 minutes ago)

EKRK 182150Z AUTO 07006KT 9999 NCD 15/04 Q1013

Closest aviation forecast (TAF) to Frederikssund Nord Glider Field

Closest forecast is Copenhagen Kastrup Airport, 24.2 nm (44.8 km) SE.

2024/05/18 18:31 (retrieved 4 hours ago)

TAF EKCH 181702Z 1818/1918 07010KT CAVOK PROB40 1906/1910 SCT050CB BECMG 1909/1911 19008KT TEMPO 1910/1917 SCT050CB